createdAt,value
2022-10-02T00:00:22.991Z,1013.02
2022-10-02T00:01:26.029Z,1013.04
2022-10-02T00:02:29.048Z,1013.00
2022-10-02T00:04:03.857Z,1013.05
2022-10-02T00:05:06.801Z,1013.03
2022-10-02T00:06:09.515Z,1013.08
2022-10-02T00:07:44.099Z,1013.05
2022-10-02T00:08:46.948Z,1013.09
2022-10-02T00:09:49.849Z,1013.04
2022-10-02T00:11:24.310Z,1013.13
2022-10-02T00:12:27.062Z,1013.14
2022-10-02T00:13:29.955Z,1013.11
2022-10-02T00:15:04.493Z,1013.12
2022-10-02T00:16:07.309Z,1013.14
2022-10-02T00:17:10.550Z,1013.13
2022-10-02T00:18:45.124Z,1013.05
2022-10-02T00:19:47.992Z,1013.00
2022-10-02T00:20:50.768Z,1012.99
2022-10-02T00:22:25.140Z,1012.94
2022-10-02T00:23:27.809Z,1012.93
2022-10-02T00:24:30.512Z,1012.92
2022-10-02T00:26:05.193Z,1012.88
2022-10-02T00:27:07.954Z,1012.91
2022-10-02T00:28:10.971Z,1012.91
2022-10-02T00:29:45.848Z,1012.97
2022-10-02T00:30:49.255Z,1012.98
2022-10-02T00:31:52.320Z,1012.98
2022-10-02T00:33:27.481Z,1012.95
2022-10-02T00:34:30.137Z,1013.01
2022-10-02T00:35:32.871Z,1013.00
2022-10-02T00:37:07.416Z,1013.05
2022-10-02T00:38:10.154Z,1013.07
2022-10-02T00:39:12.807Z,1013.04
2022-10-02T00:40:47.277Z,1013.05
2022-10-02T00:41:50.241Z,1013.06
2022-10-02T00:42:52.939Z,1013.07
2022-10-02T00:44:27.689Z,1013.09
2022-10-02T00:45:30.731Z,1013.08
2022-10-02T00:46:34.429Z,1013.10
2022-10-02T00:48:09.276Z,1013.26
2022-10-02T00:49:12.203Z,1013.32
2022-10-02T00:50:15.107Z,1013.39
2022-10-02T00:51:49.392Z,1013.32
2022-10-02T00:52:52.164Z,1013.40
2022-10-02T00:53:55.100Z,1013.53
2022-10-02T00:55:29.694Z,1013.45
2022-10-02T00:56:32.716Z,1013.46
2022-10-02T00:57:36.095Z,1013.38
2022-10-02T00:59:10.666Z,1013.26
2022-10-02T01:00:23.721Z,1013.22
2022-10-02T01:01:26.976Z,1013.15
2022-10-02T01:02:30.221Z,1013.13
2022-10-02T01:04:04.868Z,1013.11
2022-10-02T01:05:07.679Z,1013.18
2022-10-02T01:06:10.498Z,1013.14
2022-10-02T01:07:45.005Z,1013.14
2022-10-02T01:08:47.800Z,1013.07
2022-10-02T01:09:50.704Z,1013.08
2022-10-02T01:11:25.362Z,1013.22
2022-10-02T01:12:28.283Z,1013.33
2022-10-02T01:13:30.925Z,1013.28
2022-10-02T01:15:05.373Z,1013.29
2022-10-02T01:16:08.347Z,1013.34
2022-10-02T01:17:11.403Z,1013.37
2022-10-02T01:18:45.925Z,1013.34
2022-10-02T01:19:48.717Z,1013.32
2022-10-02T01:20:51.460Z,1013.35
2022-10-02T01:22:26.018Z,1013.30
2022-10-02T01:23:28.696Z,1013.33
2022-10-02T01:24:31.371Z,1013.31
2022-10-02T01:26:06.123Z,1013.36
2022-10-02T01:27:08.791Z,1013.36
2022-10-02T01:28:11.818Z,1013.24
2022-10-02T01:29:46.623Z,1013.26
2022-10-02T01:30:49.563Z,1013.27
2022-10-02T01:31:52.462Z,1013.25
2022-10-02T01:33:27.272Z,1013.19
2022-10-02T01:34:30.197Z,1013.26
2022-10-02T01:35:32.899Z,1013.31
2022-10-02T01:37:07.364Z,1013.35
2022-10-02T01:38:10.029Z,1013.36
2022-10-02T01:39:12.728Z,1013.32
2022-10-02T01:40:47.241Z,1013.31
2022-10-02T01:41:49.915Z,1013.32
2022-10-02T01:42:52.713Z,1013.34
2022-10-02T01:44:27.159Z,1013.30
2022-10-02T01:45:30.049Z,1013.32
2022-10-02T01:46:33.527Z,1013.37
2022-10-02T01:48:08.555Z,1013.33
2022-10-02T01:49:11.223Z,1013.37
2022-10-02T01:50:13.930Z,1013.34
2022-10-02T01:51:48.450Z,1013.40
2022-10-02T01:52:51.138Z,1013.37
2022-10-02T01:53:53.865Z,1013.32
2022-10-02T01:55:28.362Z,1013.38
2022-10-02T01:56:31.017Z,1013.42
2022-10-02T01:57:33.965Z,1013.44
2022-10-02T01:59:08.398Z,1013.44
2022-10-02T02:00:23.259Z,1013.41
2022-10-02T02:01:26.424Z,1013.43
2022-10-02T02:02:29.740Z,1013.41
2022-10-02T02:04:04.542Z,1013.43
2022-10-02T02:05:07.455Z,1013.47
2022-10-02T02:06:10.168Z,1013.44
2022-10-02T02:07:44.768Z,1013.49
2022-10-02T02:08:47.806Z,1013.51
2022-10-02T02:09:53.749Z,1013.45
2022-10-02T02:11:28.405Z,1013.43
2022-10-02T02:12:31.505Z,1013.42
2022-10-02T02:13:34.140Z,1013.44
2022-10-02T02:15:08.468Z,1013.42
2022-10-02T02:16:11.526Z,1013.44
2022-10-02T02:17:14.448Z,1013.40
2022-10-02T02:18:48.965Z,1013.41
2022-10-02T02:19:51.855Z,1013.44
2022-10-02T02:20:54.533Z,1013.46
2022-10-02T02:22:28.980Z,1013.53
2022-10-02T02:23:31.748Z,1013.52
2022-10-02T02:24:34.562Z,1013.49
2022-10-02T02:26:09.021Z,1013.49
2022-10-02T02:27:11.679Z,1013.47
2022-10-02T02:28:14.846Z,1013.48
2022-10-02T02:29:49.729Z,1013.53
2022-10-02T02:30:52.463Z,1013.53
2022-10-02T02:31:55.782Z,1013.51
2022-10-02T02:33:30.512Z,1013.47
2022-10-02T02:34:33.295Z,1013.49
2022-10-02T02:35:36.106Z,1013.43
2022-10-02T02:37:10.665Z,1013.48
2022-10-02T02:38:13.411Z,1013.45
2022-10-02T02:39:16.279Z,1013.45
2022-10-02T02:40:50.896Z,1013.43
2022-10-02T02:41:53.602Z,1013.40
2022-10-02T02:42:56.391Z,1013.41
2022-10-02T02:44:30.895Z,1013.40
2022-10-02T02:45:33.966Z,1013.41
2022-10-02T02:46:37.416Z,1013.37
2022-10-02T02:48:12.194Z,1013.38
2022-10-02T02:49:14.914Z,1013.38
2022-10-02T02:50:17.663Z,1013.40
2022-10-02T02:51:52.305Z,1013.36
2022-10-02T02:52:55.043Z,1013.38
2022-10-02T02:53:57.918Z,1013.39
2022-10-02T02:55:32.456Z,1013.38
2022-10-02T02:56:42.603Z,1013.35
2022-10-02T02:57:45.401Z,1013.39
2022-10-02T02:59:19.841Z,1013.38
2022-10-02T03:00:23.779Z,1013.35
2022-10-02T03:01:26.944Z,1013.42
2022-10-02T03:02:30.233Z,1013.46
2022-10-02T03:04:05.065Z,1013.50
2022-10-02T03:05:07.780Z,1013.47
2022-10-02T03:06:10.579Z,1013.51
2022-10-02T03:07:45.276Z,1013.49
2022-10-02T03:08:47.993Z,1013.54
2022-10-02T03:09:50.890Z,1013.50
2022-10-02T03:11:25.517Z,1013.54
2022-10-02T03:12:28.208Z,1013.54
2022-10-02T03:13:31.058Z,1013.54
2022-10-02T03:15:05.491Z,1013.53
2022-10-02T03:16:08.407Z,1013.53
2022-10-02T03:17:11.265Z,1013.54
2022-10-02T03:18:45.738Z,1013.48
2022-10-02T03:19:48.402Z,1013.46
2022-10-02T03:20:50.943Z,1013.45
2022-10-02T03:22:25.511Z,1013.44
2022-10-02T03:23:28.389Z,1013.45
2022-10-02T03:24:31.031Z,1013.44
2022-10-02T03:26:05.675Z,1013.46
2022-10-02T03:27:08.460Z,1013.37
2022-10-02T03:28:11.382Z,1013.38
2022-10-02T03:30:19.955Z,1013.40
2022-10-02T03:31:23.104Z,1013.40
2022-10-02T03:32:26.205Z,1013.38
2022-10-02T03:34:00.693Z,1013.40
2022-10-02T03:35:03.429Z,1013.39
2022-10-02T03:36:06.060Z,1013.37
2022-10-02T03:37:40.809Z,1013.38
2022-10-02T03:38:43.645Z,1013.41
2022-10-02T03:40:17.605Z,1013.42
2022-10-02T03:41:52.284Z,1013.46
2022-10-02T03:42:54.927Z,1013.49
2022-10-02T03:43:57.646Z,1013.54
2022-10-02T03:46:00.984Z,1013.57
2022-10-02T03:47:04.107Z,1013.57
2022-10-02T03:48:06.802Z,1013.58
2022-10-02T03:49:41.170Z,1013.62
2022-10-02T03:50:47.753Z,1013.60
2022-10-02T03:51:50.445Z,1013.60
2022-10-02T03:53:25.173Z,1013.56
2022-10-02T03:54:27.828Z,1013.60
2022-10-02T03:55:30.485Z,1013.60
2022-10-02T03:57:05.214Z,1013.60
2022-10-02T03:58:08.084Z,1013.58
2022-10-02T03:59:10.816Z,1013.62
2022-10-02T04:00:23.460Z,1013.61
2022-10-02T04:01:26.303Z,1013.64
2022-10-02T04:02:35.068Z,1013.62
2022-10-02T04:04:09.782Z,1013.61
2022-10-02T04:05:52.941Z,1013.64
2022-10-02T04:06:56.027Z,1013.66
2022-10-02T04:08:04.147Z,1013.65
2022-10-02T04:09:38.920Z,1013.66
2022-10-02T04:10:41.525Z,1013.64
2022-10-02T04:11:44.453Z,1013.69
2022-10-02T04:13:19.126Z,1013.75
2022-10-02T04:14:22.048Z,1013.71
2022-10-02T04:15:24.998Z,1013.71
2022-10-02T04:17:00.271Z,1013.71
2022-10-02T04:18:09.437Z,1013.75
2022-10-02T04:19:12.384Z,1013.81
2022-10-02T04:20:47.347Z,1013.82
2022-10-02T04:21:50.181Z,1013.84
2022-10-02T04:22:53.015Z,1013.85
2022-10-02T04:24:27.871Z,1013.85
2022-10-02T04:25:30.629Z,1013.84
2022-10-02T04:26:33.978Z,1013.87
2022-10-02T04:28:09.433Z,1013.93
2022-10-02T04:29:12.663Z,1013.93
2022-10-02T04:30:15.439Z,1014.00
2022-10-02T04:31:50.417Z,1013.98
2022-10-02T04:32:53.375Z,1013.96
2022-10-02T04:33:56.247Z,1014.00
2022-10-02T04:35:31.003Z,1013.99
2022-10-02T04:36:34.064Z,1013.97
2022-10-02T04:37:37.062Z,1013.99
2022-10-02T04:39:11.737Z,1013.98
2022-10-02T04:40:14.540Z,1014.00
2022-10-02T04:41:17.393Z,1013.97
2022-10-02T04:42:51.855Z,1013.96
2022-10-02T04:43:54.532Z,1013.97
2022-10-02T04:44:57.663Z,1014.03
2022-10-02T04:46:33.118Z,1013.99
2022-10-02T04:47:36.626Z,1013.97
2022-10-02T04:48:39.669Z,1013.99
2022-10-02T04:50:14.347Z,1013.96
2022-10-02T04:51:16.986Z,1014.02
2022-10-02T04:52:19.895Z,1014.02
2022-10-02T04:53:54.569Z,1014.07
2022-10-02T04:54:57.477Z,1014.05
2022-10-02T04:56:00.440Z,1014.06
2022-10-02T04:57:35.717Z,1014.06
2022-10-02T04:58:38.578Z,1014.05
2022-10-02T04:59:41.644Z,1014.05
2022-10-02T05:00:23.568Z,1014.05
2022-10-02T05:01:27.118Z,1014.09
2022-10-02T05:02:30.415Z,1014.10
2022-10-02T05:04:09.724Z,1014.13
2022-10-02T05:05:12.491Z,1014.18
2022-10-02T05:06:15.254Z,1014.18
2022-10-02T05:07:50.041Z,1014.17
2022-10-02T05:08:52.849Z,1014.14
2022-10-02T05:09:55.812Z,1014.19
2022-10-02T05:11:30.451Z,1014.18
2022-10-02T05:12:33.238Z,1014.20
2022-10-02T05:13:36.209Z,1014.21
2022-10-02T05:15:10.896Z,1014.21
2022-10-02T05:16:14.006Z,1014.19
2022-10-02T05:17:17.387Z,1014.15
2022-10-02T05:18:51.998Z,1014.14
2022-10-02T05:19:54.850Z,1014.13
2022-10-02T05:20:57.544Z,1014.16
2022-10-02T05:22:32.157Z,1014.09
2022-10-02T05:23:35.204Z,1014.09
2022-10-02T05:24:37.954Z,1014.09
2022-10-02T05:26:19.074Z,1014.05
2022-10-02T05:27:22.291Z,1014.03
2022-10-02T05:28:25.455Z,1014.06
2022-10-02T05:30:00.238Z,1014.11
2022-10-02T05:31:03.166Z,1014.14
2022-10-02T05:32:06.494Z,1014.14
2022-10-02T05:33:44.765Z,1014.15
2022-10-02T05:34:50.952Z,1014.14
2022-10-02T05:35:54.007Z,1014.11
2022-10-02T05:37:29.338Z,1014.14
2022-10-02T05:38:32.127Z,1014.19
2022-10-02T05:39:35.143Z,1014.21
2022-10-02T05:41:09.775Z,1014.29
2022-10-02T05:42:12.647Z,1014.28
2022-10-02T05:43:15.438Z,1014.32
2022-10-02T05:44:50.377Z,1014.32
2022-10-02T05:45:53.078Z,1014.32
2022-10-02T05:46:56.197Z,1014.34
2022-10-02T05:48:30.785Z,1014.35
2022-10-02T05:49:33.782Z,1014.34
2022-10-02T05:50:36.574Z,1014.40
2022-10-02T05:52:11.484Z,1014.42
2022-10-02T05:53:14.177Z,1014.42
2022-10-02T05:54:16.815Z,1014.42
2022-10-02T05:55:51.414Z,1014.41
2022-10-02T05:56:54.166Z,1014.45
2022-10-02T05:57:56.871Z,1014.47
2022-10-02T05:59:31.497Z,1014.43
2022-10-02T06:00:23.110Z,1014.43
2022-10-02T06:01:26.379Z,1014.50
2022-10-02T06:02:29.933Z,1014.48
2022-10-02T06:04:08.663Z,1014.53
2022-10-02T06:05:11.682Z,1014.54
2022-10-02T06:06:14.442Z,1014.55
2022-10-02T06:07:49.081Z,1014.61
2022-10-02T06:08:51.810Z,1014.55
2022-10-02T06:09:54.752Z,1014.55
2022-10-02T06:11:29.375Z,1014.58
2022-10-02T06:12:32.327Z,1014.56
2022-10-02T06:13:35.353Z,1014.59
2022-10-02T06:15:09.960Z,1014.57
2022-10-02T06:16:13.126Z,1014.58
2022-10-02T06:17:16.325Z,1014.63
2022-10-02T06:18:50.927Z,1014.65
2022-10-02T06:19:53.682Z,1014.71
2022-10-02T06:21:00.886Z,1014.72
2022-10-02T06:22:35.431Z,1014.74
2022-10-02T06:23:38.072Z,1014.71
2022-10-02T06:24:40.902Z,1014.69
2022-10-02T06:26:15.623Z,1014.72
2022-10-02T06:27:18.845Z,1014.74
2022-10-02T06:28:21.889Z,1014.71
2022-10-02T06:30:03.448Z,1014.78
2022-10-02T06:31:06.328Z,1014.81
2022-10-02T06:32:09.585Z,1014.80
2022-10-02T06:33:44.313Z,1014.87
2022-10-02T06:34:53.493Z,1014.85
2022-10-02T06:35:56.391Z,1014.87
2022-10-02T06:37:31.785Z,1014.85
2022-10-02T06:38:34.688Z,1014.83
2022-10-02T06:39:37.412Z,1014.83
2022-10-02T06:41:11.843Z,1014.79
2022-10-02T06:42:14.698Z,1014.80
2022-10-02T06:43:17.656Z,1014.80
2022-10-02T06:44:52.556Z,1014.88
2022-10-02T06:45:55.539Z,1014.89
2022-10-02T06:47:02.603Z,1014.88
2022-10-02T06:48:37.690Z,1014.93
2022-10-02T06:49:40.426Z,1014.92
2022-10-02T06:50:43.249Z,1014.92
2022-10-02T06:52:17.783Z,1014.92
2022-10-02T06:53:24.457Z,1014.95
2022-10-02T06:54:27.285Z,1014.95
2022-10-02T06:56:02.141Z,1014.98
2022-10-02T06:57:05.048Z,1014.99
2022-10-02T06:58:07.779Z,1014.97
2022-10-02T06:59:42.702Z,1014.99
2022-10-02T07:00:23.724Z,1015.01
2022-10-02T07:01:27.168Z,1015.07
2022-10-02T07:02:30.194Z,1015.10
2022-10-02T07:04:04.725Z,1015.11
2022-10-02T07:05:07.570Z,1015.12
2022-10-02T07:06:10.460Z,1015.14
2022-10-02T07:07:44.977Z,1015.16
2022-10-02T07:08:47.665Z,1015.19
2022-10-02T07:09:50.572Z,1015.18
2022-10-02T07:11:25.064Z,1015.19
2022-10-02T07:12:28.073Z,1015.19
2022-10-02T07:13:30.792Z,1015.21
2022-10-02T07:15:05.275Z,1015.23
2022-10-02T07:16:08.243Z,1015.23
2022-10-02T07:17:11.366Z,1015.25
2022-10-02T07:18:51.312Z,1015.29
2022-10-02T07:19:54.087Z,1015.23
2022-10-02T07:20:56.993Z,1015.29
2022-10-02T07:22:54.899Z,1015.29
2022-10-02T07:24:02.813Z,1015.27
2022-10-02T07:25:05.826Z,1015.28
2022-10-02T07:26:41.185Z,1015.26
2022-10-02T07:27:43.956Z,1015.24
2022-10-02T07:28:47.153Z,1015.27
2022-10-02T07:30:21.970Z,1015.28
2022-10-02T07:31:25.107Z,1015.30
2022-10-02T07:32:28.325Z,1015.28
2022-10-02T07:34:02.871Z,1015.31
2022-10-02T07:35:05.662Z,1015.32
2022-10-02T07:36:08.291Z,1015.31
2022-10-02T07:37:42.776Z,1015.31
2022-10-02T07:38:45.513Z,1015.31
2022-10-02T07:39:48.308Z,1015.36
2022-10-02T07:41:22.982Z,1015.38
2022-10-02T07:42:25.607Z,1015.36
2022-10-02T07:43:28.383Z,1015.36
2022-10-02T07:45:02.955Z,1015.42
2022-10-02T07:46:09.201Z,1015.44
2022-10-02T07:47:12.682Z,1015.47
2022-10-02T07:48:47.364Z,1015.48
2022-10-02T07:49:50.423Z,1015.49
2022-10-02T07:50:53.066Z,1015.51
2022-10-02T07:52:27.657Z,1015.51
2022-10-02T07:53:30.583Z,1015.51
2022-10-02T07:54:33.408Z,1015.48
2022-10-02T07:56:08.199Z,1015.50
2022-10-02T07:57:15.625Z,1015.54
2022-10-02T07:58:18.547Z,1015.54
2022-10-02T07:59:53.246Z,1015.57
2022-10-02T08:00:23.425Z,1015.57
2022-10-02T08:01:26.403Z,1015.62
2022-10-02T08:02:29.586Z,1015.64
2022-10-02T08:04:05.112Z,1015.65
2022-10-02T08:05:07.846Z,1015.67
2022-10-02T08:06:10.548Z,1015.63
2022-10-02T08:07:45.346Z,1015.71
2022-10-02T08:08:48.400Z,1015.70
2022-10-02T08:09:51.437Z,1015.63
2022-10-02T08:11:26.127Z,1015.68
2022-10-02T08:12:35.285Z,1015.72
2022-10-02T08:13:38.251Z,1015.72
2022-10-02T08:15:12.888Z,1015.69
2022-10-02T08:16:16.326Z,1015.72
2022-10-02T08:17:19.892Z,1015.79
2022-10-02T08:19:27.259Z,1015.76
2022-10-02T08:20:35.003Z,1015.79
2022-10-02T08:21:38.105Z,1015.79
2022-10-02T08:23:12.924Z,1015.85
2022-10-02T08:24:15.750Z,1015.85
2022-10-02T08:25:18.710Z,1015.84
2022-10-02T08:26:53.998Z,1015.82
2022-10-02T08:27:57.226Z,1015.84
2022-10-02T08:29:00.249Z,1015.83
2022-10-02T08:30:35.162Z,1015.84
2022-10-02T08:31:38.516Z,1015.89
2022-10-02T08:32:46.147Z,1015.89
2022-10-02T08:34:20.938Z,1015.89
2022-10-02T08:35:24.028Z,1015.94
2022-10-02T08:36:26.877Z,1015.93
2022-10-02T08:38:02.425Z,1016.02
2022-10-02T08:39:06.456Z,1016.01
2022-10-02T08:40:09.308Z,1015.99
2022-10-02T08:41:43.978Z,1015.98
2022-10-02T08:42:46.746Z,1016.01
2022-10-02T08:43:49.589Z,1016.02
2022-10-02T08:45:28.078Z,1016.03
2022-10-02T08:46:31.316Z,1016.03
2022-10-02T08:47:34.461Z,1016.05
2022-10-02T08:49:09.157Z,1016.13
2022-10-02T08:50:12.025Z,1016.10
2022-10-02T08:51:14.814Z,1016.14
2022-10-02T08:52:49.428Z,1016.14
2022-10-02T08:53:52.158Z,1016.20
2022-10-02T08:54:54.915Z,1016.23
2022-10-02T08:56:31.700Z,1016.25
2022-10-02T08:57:35.202Z,1016.22
2022-10-02T08:58:38.136Z,1016.26
2022-10-02T09:00:23.203Z,1016.26
2022-10-02T09:01:26.521Z,1016.29
2022-10-02T09:02:29.715Z,1016.29
2022-10-02T09:04:04.647Z,1016.27
2022-10-02T09:05:07.596Z,1016.33
2022-10-02T09:06:10.417Z,1016.29
2022-10-02T09:07:45.083Z,1016.37
2022-10-02T09:08:47.959Z,1016.40
2022-10-02T09:09:50.890Z,1016.45
2022-10-02T09:11:25.583Z,1016.41
2022-10-02T09:12:28.583Z,1016.49
2022-10-02T09:13:31.448Z,1016.45
2022-10-02T09:15:10.245Z,1016.46
2022-10-02T09:16:13.537Z,1016.46
2022-10-02T09:17:16.613Z,1016.48
2022-10-02T09:18:51.052Z,1016.45
2022-10-02T09:19:54.008Z,1016.46
2022-10-02T09:20:58.111Z,1016.48
2022-10-02T09:22:38.305Z,1016.43
2022-10-02T09:23:41.242Z,1016.48
2022-10-02T09:24:44.266Z,1016.45
2022-10-02T09:26:19.127Z,1016.53
2022-10-02T09:27:22.408Z,1016.53
2022-10-02T09:28:25.653Z,1016.48
2022-10-02T09:30:00.537Z,1016.50
2022-10-02T09:31:03.463Z,1016.51
2022-10-02T09:32:06.755Z,1016.49
2022-10-02T09:33:41.417Z,1016.48
2022-10-02T09:34:44.613Z,1016.47
2022-10-02T09:35:47.567Z,1016.47
2022-10-02T09:37:22.641Z,1016.37
2022-10-02T09:38:25.565Z,1016.40
2022-10-02T09:39:32.927Z,1016.44
2022-10-02T09:41:07.909Z,1016.50
2022-10-02T09:42:10.990Z,1016.43
2022-10-02T09:43:13.829Z,1016.45
2022-10-02T09:44:48.658Z,1016.47
2022-10-02T09:45:56.608Z,1016.50
2022-10-02T09:46:59.790Z,1016.44
2022-10-02T09:48:34.501Z,1016.46
2022-10-02T09:49:37.469Z,1016.51
2022-10-02T09:50:40.318Z,1016.51
2022-10-02T09:52:15.302Z,1016.49
2022-10-02T09:53:18.378Z,1016.55
2022-10-02T09:54:21.265Z,1016.50
2022-10-02T09:55:56.160Z,1016.54
2022-10-02T09:56:59.023Z,1016.62
2022-10-02T09:58:01.951Z,1016.62
2022-10-02T09:59:36.623Z,1016.62
2022-10-02T10:00:23.803Z,1016.62
2022-10-02T10:01:27.076Z,1016.58
2022-10-02T10:02:36.295Z,1016.66
2022-10-02T10:04:11.025Z,1016.61
2022-10-02T10:05:40.166Z,1016.63
2022-10-02T10:06:43.862Z,1016.70
2022-10-02T10:08:18.690Z,1016.61
2022-10-02T10:09:21.489Z,1016.63
2022-10-02T10:10:24.366Z,1016.63
2022-10-02T10:11:59.317Z,1016.65
2022-10-02T10:13:02.374Z,1016.65
2022-10-02T10:14:05.133Z,1016.68
2022-10-02T10:15:39.910Z,1016.68
2022-10-02T10:16:42.977Z,1016.65
2022-10-02T10:17:45.834Z,1016.69
2022-10-02T10:19:20.542Z,1016.68
2022-10-02T10:20:23.473Z,1016.73
2022-10-02T10:21:29.445Z,1016.69
2022-10-02T10:23:05.524Z,1016.72
2022-10-02T10:24:08.481Z,1016.75
2022-10-02T10:25:11.149Z,1016.82
2022-10-02T10:26:45.729Z,1016.84
2022-10-02T10:27:53.625Z,1016.85
2022-10-02T10:28:58.190Z,1016.84
2022-10-02T10:30:33.064Z,1016.83
2022-10-02T10:31:36.558Z,1016.84
2022-10-02T10:32:39.886Z,1016.83
2022-10-02T10:34:14.603Z,1016.80
2022-10-02T10:35:17.571Z,1016.83
2022-10-02T10:36:20.499Z,1016.84
2022-10-02T10:37:55.126Z,1016.82
2022-10-02T10:38:57.956Z,1016.87
2022-10-02T10:40:00.879Z,1016.86
2022-10-02T10:41:36.047Z,1016.81
2022-10-02T10:43:07.938Z,1016.83
2022-10-02T10:44:14.460Z,1016.87
2022-10-02T10:45:49.796Z,1016.87
2022-10-02T10:46:52.982Z,1016.93
2022-10-02T10:47:55.839Z,1016.93
2022-10-02T10:49:35.698Z,1017.01
2022-10-02T10:50:38.559Z,1017.03
2022-10-02T10:51:42.331Z,1017.10
2022-10-02T10:53:16.831Z,1017.11
2022-10-02T10:54:19.654Z,1017.13
2022-10-02T10:55:22.492Z,1017.16
2022-10-02T10:56:57.265Z,1017.22
2022-10-02T10:58:00.014Z,1017.24
2022-10-02T10:59:02.761Z,1017.22
2022-10-02T11:00:23.209Z,1017.32
2022-10-02T11:01:26.344Z,1017.25
2022-10-02T11:02:30.165Z,1017.30
2022-10-02T11:04:05.309Z,1017.34
2022-10-02T11:05:08.210Z,1017.34
2022-10-02T11:06:11.049Z,1017.34
2022-10-02T11:07:45.797Z,1017.27
2022-10-02T11:08:48.594Z,1017.36
2022-10-02T11:09:51.718Z,1017.36
2022-10-02T11:11:26.441Z,1017.33
2022-10-02T11:12:30.213Z,1017.35
2022-10-02T11:13:33.116Z,1017.36
2022-10-02T11:15:07.821Z,1017.37
2022-10-02T11:16:10.690Z,1017.37
2022-10-02T11:17:13.932Z,1017.40
2022-10-02T11:18:48.700Z,1017.43
2022-10-02T11:19:51.665Z,1017.43
2022-10-02T11:20:54.857Z,1017.44
2022-10-02T11:22:31.195Z,1017.44
2022-10-02T11:23:34.027Z,1017.44
2022-10-02T11:24:36.819Z,1017.45
2022-10-02T11:26:11.592Z,1017.43
2022-10-02T11:27:14.560Z,1017.49
2022-10-02T11:28:17.689Z,1017.55
2022-10-02T11:29:52.484Z,1017.54
2022-10-02T11:30:55.235Z,1017.60
2022-10-02T11:31:58.778Z,1017.56
2022-10-02T11:33:33.759Z,1017.50
2022-10-02T11:34:36.637Z,1017.56
2022-10-02T11:35:39.391Z,1017.60
2022-10-02T11:37:14.199Z,1017.57
2022-10-02T11:38:17.013Z,1017.65
2022-10-02T11:39:19.856Z,1017.65
2022-10-02T11:40:54.455Z,1017.65
2022-10-02T11:41:57.673Z,1017.67
2022-10-02T11:43:00.642Z,1017.62
2022-10-02T11:44:41.476Z,1017.68
2022-10-02T11:45:44.517Z,1017.70
2022-10-02T11:46:47.529Z,1017.70
2022-10-02T11:48:22.117Z,1017.73
2022-10-02T11:49:24.983Z,1017.74
2022-10-02T11:50:27.720Z,1017.68
2022-10-02T11:52:02.267Z,1017.71
2022-10-02T11:53:05.173Z,1017.75
2022-10-02T11:54:08.010Z,1017.68
2022-10-02T11:55:42.750Z,1017.68
2022-10-02T11:56:45.750Z,1017.69
2022-10-02T11:57:48.677Z,1017.66
2022-10-02T11:59:23.382Z,1017.72
2022-10-02T12:00:23.996Z,1017.67
2022-10-02T12:01:27.136Z,1017.64
2022-10-02T12:02:31.561Z,1017.65
2022-10-02T12:04:07.655Z,1017.60
2022-10-02T12:05:10.438Z,1017.55
2022-10-02T12:06:13.210Z,1017.57
2022-10-02T12:07:47.985Z,1017.58
2022-10-02T12:08:50.954Z,1017.63
2022-10-02T12:09:53.918Z,1017.64
2022-10-02T12:11:28.682Z,1017.65
2022-10-02T12:12:38.973Z,1017.68
2022-10-02T12:13:42.198Z,1017.68
2022-10-02T12:15:17.393Z,1017.68
2022-10-02T12:16:20.653Z,1017.68
2022-10-02T12:17:23.995Z,1017.73
2022-10-02T12:18:58.977Z,1017.68
2022-10-02T12:20:01.932Z,1017.68
2022-10-02T12:21:04.896Z,1017.61
2022-10-02T12:22:39.989Z,1017.69
2022-10-02T12:23:43.094Z,1017.66
2022-10-02T12:24:46.227Z,1017.70
2022-10-02T12:26:24.380Z,1017.68
2022-10-02T12:27:27.610Z,1017.68
2022-10-02T12:28:30.987Z,1017.67
2022-10-02T12:30:06.412Z,1017.66
2022-10-02T12:31:09.231Z,1017.69
2022-10-02T12:32:12.699Z,1017.72
2022-10-02T12:33:47.517Z,1017.72
2022-10-02T12:34:54.265Z,1017.69
2022-10-02T12:35:57.394Z,1017.71
2022-10-02T12:37:32.431Z,1017.71
2022-10-02T12:38:35.394Z,1017.73
2022-10-02T12:39:38.491Z,1017.69
2022-10-02T12:41:13.577Z,1017.75
2022-10-02T12:42:16.777Z,1017.72
2022-10-02T12:43:20.027Z,1017.70
2022-10-02T12:44:54.831Z,1017.73
2022-10-02T12:46:03.683Z,1017.68
2022-10-02T12:47:06.883Z,1017.74
2022-10-02T12:48:41.945Z,1017.75
2022-10-02T12:49:44.986Z,1017.74
2022-10-02T12:50:48.090Z,1017.78
2022-10-02T12:52:29.541Z,1017.79
2022-10-02T12:53:32.663Z,1017.81
2022-10-02T12:54:35.683Z,1017.79
2022-10-02T12:56:10.526Z,1017.80
2022-10-02T12:57:13.638Z,1017.81
2022-10-02T12:58:16.658Z,1017.82
2022-10-02T12:59:51.571Z,1017.83
2022-10-02T13:00:23.649Z,1017.85
2022-10-02T13:01:26.882Z,1017.79
2022-10-02T13:03:01.240Z,1017.82
2022-10-02T13:04:37.047Z,1017.80
2022-10-02T13:05:42.541Z,1017.92
2022-10-02T13:06:49.138Z,1017.90
2022-10-02T13:08:23.987Z,1017.97
2022-10-02T13:09:29.825Z,1017.97
2022-10-02T13:10:33.523Z,1017.97
2022-10-02T13:12:08.295Z,1017.96
2022-10-02T13:13:11.175Z,1018.01
2022-10-02T13:14:14.013Z,1017.98
2022-10-02T13:15:49.093Z,1018.07
2022-10-02T13:16:52.465Z,1018.09
2022-10-02T13:18:01.469Z,1018.04
2022-10-02T13:19:36.073Z,1017.99
2022-10-02T13:20:38.963Z,1018.06
2022-10-02T13:21:42.221Z,1018.08
2022-10-02T13:23:17.021Z,1018.09
2022-10-02T13:24:20.056Z,1018.10
2022-10-02T13:25:23.056Z,1018.12
2022-10-02T13:26:57.839Z,1018.10
2022-10-02T13:28:01.120Z,1018.12
2022-10-02T13:29:04.328Z,1018.10
2022-10-02T13:30:39.271Z,1018.11
2022-10-02T13:31:43.004Z,1018.17
2022-10-02T13:32:46.361Z,1018.18
2022-10-02T13:34:21.202Z,1018.18
2022-10-02T13:35:29.995Z,1018.20
2022-10-02T13:36:40.643Z,1018.25
2022-10-02T13:38:15.535Z,1018.26
2022-10-02T13:39:18.624Z,1018.23
2022-10-02T13:40:21.768Z,1018.21
2022-10-02T13:41:56.687Z,1018.25
2022-10-02T13:42:59.665Z,1018.27
2022-10-02T13:44:06.511Z,1018.32
2022-10-02T13:45:41.994Z,1018.28
2022-10-02T13:46:45.191Z,1018.33
2022-10-02T13:47:48.230Z,1018.33
2022-10-02T13:49:23.427Z,1018.37
2022-10-02T13:50:29.137Z,1018.31
2022-10-02T13:51:32.042Z,1018.34
2022-10-02T13:53:07.801Z,1018.38
2022-10-02T13:54:10.950Z,1018.38
2022-10-02T13:55:14.060Z,1018.40
2022-10-02T13:56:48.949Z,1018.42
2022-10-02T13:57:51.877Z,1018.44
2022-10-02T13:58:54.885Z,1018.45
2022-10-02T14:00:23.102Z,1018.40
2022-10-02T14:01:26.333Z,1018.44
2022-10-02T14:02:30.186Z,1018.44
2022-10-02T14:04:05.191Z,1018.46
2022-10-02T14:05:08.441Z,1018.46
2022-10-02T14:06:11.379Z,1018.43
2022-10-02T14:07:46.255Z,1018.45
2022-10-02T14:08:49.196Z,1018.42
2022-10-02T14:09:52.222Z,1018.46
2022-10-02T14:11:27.030Z,1018.40
2022-10-02T14:12:30.943Z,1018.35
2022-10-02T14:13:34.109Z,1018.40
2022-10-02T14:15:08.683Z,1018.36
2022-10-02T14:16:11.951Z,1018.36
2022-10-02T14:17:14.943Z,1018.39
2022-10-02T14:18:49.595Z,1018.44
2022-10-02T14:19:52.446Z,1018.46
2022-10-02T14:20:55.588Z,1018.48
2022-10-02T14:22:31.466Z,1018.48
2022-10-02T14:23:34.326Z,1018.49
2022-10-02T14:24:37.092Z,1018.49
2022-10-02T14:26:12.022Z,1018.55
2022-10-02T14:27:14.924Z,1018.52
2022-10-02T14:28:18.138Z,1018.60
2022-10-02T14:30:00.253Z,1018.58
2022-10-02T14:31:03.340Z,1018.60
2022-10-02T14:32:06.743Z,1018.59
2022-10-02T14:33:41.510Z,1018.60
2022-10-02T14:34:44.512Z,1018.66
2022-10-02T14:35:47.493Z,1018.64
2022-10-02T14:37:22.463Z,1018.63
2022-10-02T14:38:25.534Z,1018.69
2022-10-02T14:39:28.296Z,1018.66
2022-10-02T14:41:03.287Z,1018.72
2022-10-02T14:42:06.202Z,1018.70
2022-10-02T14:43:09.125Z,1018.72
2022-10-02T14:44:44.149Z,1018.74
2022-10-02T14:45:47.190Z,1018.79
2022-10-02T14:46:50.473Z,1018.76
2022-10-02T14:48:30.029Z,1018.81
2022-10-02T14:49:33.023Z,1018.77
2022-10-02T14:50:36.295Z,1018.80
2022-10-02T14:52:11.006Z,1018.78
2022-10-02T14:53:13.879Z,1018.86